Time;durP1;ratioP1;P1;durP2;ratioP2;P2;SDS_P1;SDS_P2;PMS_P1;PMS_P2;Temp;Humidity;BMP_temperature;BMP_pressure;BME280_temperature;BME280_humidity;BME280_pressure;Samples;Min_cycle;Max_cycle;Signal;HPM_P1;HPM_P2
2022/12/02 00:01:14;;;;;;;66.22;30.15;;;4.00;99.90;;;;;;5001663;28;20056;-40
2022/12/02 00:03:41;;;;;;;72.45;31.58;;;4.00;99.90;;;;;;5009702;28;20081;-39
2022/12/02 00:06:12;;;;;;;75.38;33.08;;;4.00;99.90;;;;;;5012095;28;20042;-39
2022/12/02 00:08:39;;;;;;;71.40;32.08;;;4.00;99.90;;;;;;5030527;28;20786;-39
2022/12/02 00:11:18;;;;;;;67.57;30.90;;;4.00;99.90;;;;;;5033080;28;20486;-39
2022/12/02 00:13:45;;;;;;;73.85;32.08;;;4.00;99.90;;;;;;5035163;28;20057;-39
2022/12/02 00:16:19;;;;;;;67.85;32.05;;;4.00;99.90;;;;;;5032724;28;20497;-39
2022/12/02 00:18:46;;;;;;;72.65;32.63;;;4.00;99.90;;;;;;5026795;28;20139;-39
2022/12/02 00:21:12;;;;;;;66.95;31.00;;;4.00;99.90;;;;;;5029951;28;20104;-39
2022/12/02 00:23:39;;;;;;;71.07;31.50;;;3.90;99.90;;;;;;5023760;28;20077;-39
2022/12/02 00:26:06;;;;;;;67.65;31.85;;;3.90;99.90;;;;;;5033452;28;20136;-39
2022/12/02 00:28:33;;;;;;;73.75;31.67;;;3.90;99.90;;;;;;5018981;28;20046;-39
2022/12/02 00:31:00;;;;;;;71.45;30.90;;;3.90;99.90;;;;;;5009450;28;20093;-39
2022/12/02 00:33:28;;;;;;;71.53;31.90;;;3.90;99.90;;;;;;5014687;28;20133;-39
2022/12/02 00:35:54;;;;;;;70.95;32.42;;;3.90;99.90;;;;;;5017196;28;20077;-40
2022/12/02 00:38:21;;;;;;;80.60;33.47;;;3.90;99.90;;;;;;5035405;28;20096;-40
2022/12/02 00:40:48;;;;;;;75.97;34.28;;;3.90;99.90;;;;;;5002735;28;20176;-40
2022/12/02 00:48:45;;;;;;;72.20;32.88;;;3.80;99.90;;;;;;5013992;28;20045;-39
2022/12/02 00:51:11;;;;;;;72.57;31.73;;;3.80;99.90;;;;;;5012121;28;20070;-39
2022/12/02 00:53:38;;;;;;;73.43;31.42;;;3.80;99.90;;;;;;5019509;28;20084;-39
2022/12/02 00:56:05;;;;;;;68.75;31.48;;;3.80;99.90;;;;;;5030794;28;20784;-39
2022/12/02 00:58:32;;;;;;;71.25;32.90;;;3.80;99.90;;;;;;5015260;28;20085;-39
2022/12/02 01:00:59;;;;;;;78.10;33.45;;;3.90;99.90;;;;;;5032604;28;20119;-39
2022/12/02 01:03:26;;;;;;;67.22;31.38;;;3.80;99.90;;;;;;5026590;28;20207;-39
2022/12/02 01:05:54;;;;;;;71.65;32.78;;;3.80;99.90;;;;;;5027355;28;20092;-39
2022/12/02 01:08:24;;;;;;;68.38;30.58;;;3.80;99.90;;;;;;5010368;28;20089;-40
2022/12/02 01:10:50;;;;;;;76.22;33.30;;;3.80;99.90;;;;;;5040027;28;20053;-39
2022/12/02 01:13:17;;;;;;;71.95;33.35;;;3.80;99.90;;;;;;5015488;28;20124;-39
2022/12/02 01:15:44;;;;;;;72.13;32.33;;;3.80;99.90;;;;;;5030128;28;20127;-39
2022/12/02 01:18:11;;;;;;;77.40;33.03;;;3.80;99.90;;;;;;5028603;28;20081;-39
2022/12/02 01:20:38;;;;;;;71.78;33.63;;;3.80;99.90;;;;;;5033564;28;20151;-39
2022/12/02 01:23:06;;;;;;;70.75;33.03;;;3.70;99.90;;;;;;5001474;28;20046;-38
2022/12/02 01:25:33;;;;;;;71.10;32.30;;;3.80;99.90;;;;;;5022711;28;20128;-39
2022/12/02 01:27:59;;;;;;;70.50;31.15;;;3.80;99.90;;;;;;5029581;28;20053;-38
2022/12/02 01:30:26;;;;;;;64.65;30.73;;;3.80;99.90;;;;;;5015505;28;20088;-38
2022/12/02 01:32:53;;;;;;;72.68;33.40;;;3.80;99.90;;;;;;5032180;28;20111;-40
2022/12/02 01:35:20;;;;;;;71.88;31.08;;;3.70;99.90;;;;;;5016255;28;20084;-38
2022/12/02 01:37:46;;;;;;;62.55;30.02;;;3.70;99.90;;;;;;5032528;28;20057;-39
2022/12/02 01:40:15;;;;;;;64.88;30.30;;;3.70;99.90;;;;;;5033701;28;20046;-39
2022/12/02 01:42:41;;;;;;;70.70;29.60;;;3.70;99.90;;;;;;5026936;28;20448;-39
2022/12/02 01:45:09;;;;;;;60.17;28.23;;;3.70;99.90;;;;;;5032672;28;20469;-39
2022/12/02 01:47:36;;;;;;;68.93;29.45;;;3.70;99.90;;;;;;5029155;28;20143;-38
2022/12/02 01:50:04;;;;;;;58.08;27.80;;;3.70;99.90;;;;;;5016158;28;20525;-38
2022/12/02 01:52:30;;;;;;;58.00;28.42;;;3.70;99.90;;;;;;5028879;28;20108;-39
2022/12/02 01:54:57;;;;;;;61.53;28.90;;;3.70;99.90;;;;;;5033249;28;20146;-39
2022/12/02 01:57:30;;;;;;;58.25;27.77;;;3.70;99.90;;;;;;5031991;28;20111;-40
2022/12/02 01:59:56;;;;;;;60.85;29.00;;;3.70;99.90;;;;;;5006012;28;20088;-39
2022/12/02 02:02:27;;;;;;;62.72;28.85;;;3.70;99.90;;;;;;5033784;28;20104;-39
2022/12/02 02:04:54;;;;;;;61.47;28.17;;;3.70;99.90;;;;;;5014013;28;20136;-39
2022/12/02 02:07:21;;;;;;;62.47;29.00;;;3.70;99.90;;;;;;5030645;28;20053;-39
2022/12/02 02:09:48;;;;;;;61.83;27.15;;;3.70;99.90;;;;;;5015070;28;20081;-39
2022/12/02 02:12:14;;;;;;;56.90;27.00;;;3.60;99.90;;;;;;5013689;28;20080;-39
2022/12/02 02:14:43;;;;;;;51.22;23.05;;;3.60;99.90;;;;;;5033065;28;20084;-39
2022/12/02 02:17:09;;;;;;;44.40;21.70;;;3.60;99.90;;;;;;4997673;28;20081;-39
2022/12/02 02:19:36;;;;;;;46.90;21.38;;;3.60;99.90;;;;;;5023829;28;20148;-39
2022/12/02 02:22:04;;;;;;;43.47;20.90;;;3.60;99.90;;;;;;4996860;28;20077;-39
2022/12/02 02:24:32;;;;;;;39.22;19.75;;;3.50;99.90;;;;;;5019910;28;20085;-39
2022/12/02 02:26:59;;;;;;;40.95;20.27;;;3.50;99.90;;;;;;5030176;28;20100;-39
2022/12/02 02:29:26;;;;;;;37.10;19.05;;;3.50;99.90;;;;;;5014846;28;20076;-39
2022/12/02 02:31:52;;;;;;;41.17;19.83;;;3.50;99.90;;;;;;5031971;28;20553;-39
2022/12/02 02:34:19;;;;;;;41.53;18.98;;;3.50;99.90;;;;;;5031630;28;20454;-38
2022/12/02 02:36:46;;;;;;;39.60;18.52;;;3.50;99.90;;;;;;4995780;28;20080;-39
2022/12/02 02:39:13;;;;;;;39.10;19.60;;;3.40;99.90;;;;;;4997141;28;20137;-38
2022/12/02 02:41:41;;;;;;;41.70;19.52;;;3.40;99.90;;;;;;5024674;28;20088;-39
2022/12/02 02:44:08;;;;;;;38.88;19.02;;;3.40;99.90;;;;;;5000899;28;20502;-39
2022/12/02 02:46:34;;;;;;;37.58;18.38;;;3.40;99.90;;;;;;5001225;28;20054;-38
2022/12/02 02:49:01;;;;;;;39.63;19.92;;;3.40;99.90;;;;;;5032913;28;20081;-39
2022/12/02 02:51:28;;;;;;;42.13;19.58;;;3.40;99.90;;;;;;5019735;28;20720;-38
2022/12/02 02:53:55;;;;;;;38.33;19.90;;;3.40;99.90;;;;;;5024822;28;20080;-39
2022/12/02 02:56:21;;;;;;;39.92;20.08;;;3.40;99.90;;;;;;5032023;28;20539;-39
2022/12/02 02:58:50;;;;;;;37.53;19.80;;;3.40;99.90;;;;;;5025162;28;20448;-39
2022/12/02 03:01:18;;;;;;;41.10;21.35;;;3.40;99.90;;;;;;5015349;28;20103;-37
2022/12/02 03:03:46;;;;;;;39.80;19.73;;;3.40;99.90;;;;;;5031024;28;20089;-39
2022/12/02 03:06:13;;;;;;;40.88;21.13;;;3.40;99.90;;;;;;5031089;28;20120;-39
2022/12/02 03:08:41;;;;;;;37.50;19.02;;;3.40;99.90;;;;;;5026119;28;20084;-37
2022/12/02 03:11:07;;;;;;;40.45;19.92;;;3.40;99.90;;;;;;5022711;28;20143;-39
2022/12/02 03:13:35;;;;;;;43.03;20.95;;;3.40;99.90;;;;;;5013258;28;20103;-39
2022/12/02 03:16:04;;;;;;;43.38;21.50;;;3.40;99.90;;;;;;5032648;28;20057;-39
2022/12/02 03:18:31;;;;;;;42.40;21.20;;;3.30;99.90;;;;;;5031188;28;20080;-39
2022/12/02 03:20:58;;;;;;;41.40;20.67;;;3.30;99.90;;;;;;5031248;28;20095;-39
2022/12/02 03:23:25;;;;;;;41.50;20.48;;;3.30;99.90;;;;;;5018665;28;20050;-39
2022/12/02 03:25:51;;;;;;;40.17;20.23;;;3.30;99.90;;;;;;5020709;28;20417;-38
2022/12/02 03:28:18;;;;;;;38.38;19.80;;;3.30;99.90;;;;;;5011241;28;20504;-39
2022/12/02 03:30:45;;;;;;;42.40;19.33;;;3.30;99.90;;;;;;4995217;28;20046;-40
2022/12/02 03:33:13;;;;;;;43.83;21.67;;;3.30;99.90;;;;;;4995495;28;20150;-39
2022/12/02 03:35:40;;;;;;;39.17;19.50;;;3.20;99.90;;;;;;5024559;28;20089;-39
2022/12/02 03:38:06;;;;;;;38.78;19.38;;;3.20;99.90;;;;;;4995499;28;20085;-39
2022/12/02 03:40:33;;;;;;;38.33;19.88;;;3.30;99.90;;;;;;5014000;28;20061;-39
2022/12/02 03:43:00;;;;;;;38.55;20.48;;;3.20;99.90;;;;;;5021750;28;20081;-39
2022/12/02 03:45:27;;;;;;;38.75;19.88;;;3.20;99.90;;;;;;5031478;28;20111;-38
2022/12/02 03:47:54;;;;;;;37.58;18.88;;;3.20;99.90;;;;;;5031070;28;20054;-38
2022/12/02 03:50:22;;;;;;;38.22;19.08;;;3.20;99.90;;;;;;5032178;28;20089;-39
2022/12/02 03:52:48;;;;;;;41.80;18.60;;;3.20;99.90;;;;;;5031333;28;20084;-39
2022/12/02 03:55:15;;;;;;;37.83;18.38;;;3.20;99.90;;;;;;5032220;28;20099;-38
2022/12/02 03:57:42;;;;;;;42.70;19.80;;;3.20;99.90;;;;;;5014457;28;20512;-39
2022/12/02 04:00:09;;;;;;;40.15;18.65;;;3.10;99.90;;;;;;4995166;28;20093;-39
2022/12/02 04:02:36;;;;;;;43.00;19.23;;;3.10;99.90;;;;;;5002569;28;20057;-39
2022/12/02 04:05:03;;;;;;;45.08;19.92;;;3.10;99.90;;;;;;5013332;28;20144;-39
2022/12/02 04:07:31;;;;;;;50.53;20.67;;;3.10;99.90;;;;;;5026822;28;20131;-38
2022/12/02 04:09:58;;;;;;;50.28;21.30;;;3.10;99.90;;;;;;5022521;28;20077;-39
2022/12/02 04:12:25;;;;;;;48.97;21.92;;;3.10;99.90;;;;;;5016663;28;20498;-39
2022/12/02 04:14:51;;;;;;;53.15;23.35;;;3.10;99.90;;;;;;5031551;28;20085;-39
2022/12/02 04:17:18;;;;;;;51.47;22.52;;;3.00;99.90;;;;;;5029128;28;20053;-39
2022/12/02 04:19:45;;;;;;;46.80;20.75;;;3.00;99.90;;;;;;5029735;28;20077;-39
2022/12/02 04:22:12;;;;;;;47.47;22.30;;;3.00;99.90;;;;;;5033213;28;20142;-39
2022/12/02 04:24:40;;;;;;;50.63;23.40;;;3.00;99.90;;;;;;5032961;28;20124;-38
2022/12/02 04:27:06;;;;;;;56.67;24.17;;;3.10;99.90;;;;;;5033083;28;20559;-38
2022/12/02 04:29:33;;;;;;;58.20;24.55;;;3.00;99.90;;;;;;5035427;28;20155;-39
2022/12/02 04:32:00;;;;;;;52.10;23.23;;;3.00;99.90;;;;;;5001837;28;20082;-38
2022/12/02 04:34:27;;;;;;;51.50;23.25;;;3.00;99.90;;;;;;5027313;28;20096;-38
2022/12/02 04:36:54;;;;;;;53.13;24.10;;;3.10;99.90;;;;;;5030828;28;20053;-38
2022/12/02 04:39:20;;;;;;;52.50;23.50;;;3.10;99.90;;;;;;5033401;28;20393;-39
2022/12/02 04:41:48;;;;;;;52.03;23.02;;;3.10;99.90;;;;;;5018044;28;20103;-40
2022/12/02 04:44:15;;;;;;;54.28;23.77;;;3.10;99.90;;;;;;5029960;28;20402;-39
2022/12/02 04:46:42;;;;;;;55.22;24.13;;;3.10;99.90;;;;;;5030467;28;20049;-39
2022/12/02 04:49:09;;;;;;;54.45;25.10;;;3.00;99.90;;;;;;5033756;28;20046;-39
2022/12/02 04:51:36;;;;;;;58.92;24.77;;;3.10;99.90;;;;;;5034754;28;20096;-39
2022/12/02 04:54:03;;;;;;;59.78;26.17;;;3.00;99.90;;;;;;5034480;28;20140;-39
2022/12/02 04:56:30;;;;;;;55.42;24.83;;;3.00;99.90;;;;;;5033005;28;20472;-38
2022/12/02 04:58:58;;;;;;;60.38;26.35;;;3.00;99.90;;;;;;5031166;28;20743;-39
2022/12/02 05:01:25;;;;;;;57.90;25.83;;;2.90;99.90;;;;;;5032858;28;20211;-39
2022/12/02 05:03:51;;;;;;;60.13;26.67;;;2.90;99.90;;;;;;5002111;28;20477;-39
2022/12/02 05:06:18;;;;;;;58.65;25.30;;;2.90;99.90;;;;;;5029104;28;20095;-39
2022/12/02 05:08:45;;;;;;;54.55;24.92;;;2.90;99.90;;;;;;5030608;28;20124;-39
2022/12/02 05:11:12;;;;;;;56.45;25.45;;;2.90;99.90;;;;;;5002833;28;20565;-38
2022/12/02 05:13:38;;;;;;;56.92;25.80;;;2.90;99.90;;;;;;5026592;28;20057;-38
2022/12/02 05:16:07;;;;;;;59.00;25.92;;;2.90;99.90;;;;;;5032290;28;20045;-38
2022/12/02 05:18:34;;;;;;;58.28;26.13;;;2.90;99.90;;;;;;5034631;28;20119;-38
2022/12/02 05:21:01;;;;;;;59.70;25.85;;;2.90;99.90;;;;;;5033162;28;20128;-39
2022/12/02 05:23:27;;;;;;;57.88;26.70;;;2.80;99.90;;;;;;5006968;28;20081;-39
2022/12/02 05:25:54;;;;;;;56.03;25.55;;;2.80;99.90;;;;;;5014205;28;20050;-38
2022/12/02 05:28:21;;;;;;;57.80;25.35;;;2.80;99.90;;;;;;5016787;28;20096;-38
2022/12/02 05:30:48;;;;;;;54.47;24.88;;;2.80;99.90;;;;;;5032688;28;20055;-38
2022/12/02 05:33:16;;;;;;;61.15;27.02;;;2.80;99.90;;;;;;5030444;28;20093;-37
2022/12/02 05:35:43;;;;;;;67.00;28.58;;;2.70;99.90;;;;;;5022343;28;20453;-39
2022/12/02 05:38:09;;;;;;;64.80;27.17;;;2.70;99.90;;;;;;5005796;28;20085;-38
2022/12/02 05:40:36;;;;;;;63.15;28.30;;;2.70;99.90;;;;;;5030315;28;20081;-39
2022/12/02 05:43:14;;;;;;;70.93;29.00;;;2.70;99.90;;;;;;5010763;28;20077;-38
2022/12/02 05:45:40;;;;;;;70.60;29.23;;;2.70;99.90;;;;;;5025366;28;20073;-38
2022/12/02 05:48:10;;;;;;;68.60;28.65;;;2.70;99.90;;;;;;5001293;28;20133;-39
2022/12/02 05:50:38;;;;;;;64.72;27.73;;;2.70;99.90;;;;;;5030861;28;20088;-38
2022/12/02 05:53:06;;;;;;;69.53;29.67;;;2.60;99.90;;;;;;5021887;28;20136;-39
2022/12/02 05:55:33;;;;;;;67.97;29.30;;;2.70;99.90;;;;;;5027607;28;20087;-38
2022/12/02 05:58:00;;;;;;;68.55;28.23;;;2.60;99.90;;;;;;5032416;28;20057;-39
2022/12/02 06:00:27;;;;;;;70.38;29.02;;;2.70;99.90;;;;;;5028762;28;20148;-38
2022/12/02 06:02:54;;;;;;;75.15;30.52;;;2.60;99.90;;;;;;5006010;28;20200;-39
2022/12/02 06:05:22;;;;;;;66.88;26.30;;;2.60;99.90;;;;;;5029346;28;20112;-39
2022/12/02 06:07:52;;;;;;;67.65;28.25;;;2.60;99.90;;;;;;5031669;28;20099;-38
2022/12/02 06:10:23;;;;;;;73.80;29.02;;;2.60;99.90;;;;;;5001553;28;20141;-38
2022/12/02 06:12:50;;;;;;;69.90;27.33;;;2.60;99.90;;;;;;5031923;28;20562;-38
2022/12/02 06:15:17;;;;;;;69.15;28.73;;;2.60;99.90;;;;;;5028807;28;20049;-38
2022/12/02 06:17:44;;;;;;;69.88;29.35;;;2.60;99.90;;;;;;5003753;28;20049;-37
2022/12/02 06:20:13;;;;;;;72.88;30.38;;;2.60;99.90;;;;;;5011244;28;20099;-38
2022/12/02 06:22:40;;;;;;;76.97;31.05;;;2.60;99.90;;;;;;5030701;28;20042;-37
2022/12/02 06:25:21;;;;;;;74.43;29.95;;;2.60;99.90;;;;;;5026759;28;20072;-38
2022/12/02 06:27:48;;;;;;;82.22;31.15;;;2.60;99.90;;;;;;5007528;28;20099;-38
2022/12/02 06:30:15;;;;;;;72.43;30.02;;;2.60;99.90;;;;;;5024548;28;20444;-38
2022/12/02 06:32:43;;;;;;;80.22;30.50;;;2.60;99.90;;;;;;5013915;28;20096;-38
2022/12/02 06:35:19;;;;;;;82.18;32.08;;;2.60;99.90;;;;;;5020219;28;20053;-39
2022/12/02 06:37:45;;;;;;;73.95;32.08;;;2.60;99.90;;;;;;5000462;28;20478;-38
2022/12/02 06:40:22;;;;;;;79.43;32.13;;;2.60;99.90;;;;;;5009301;28;20053;-38
2022/12/02 06:42:48;;;;;;;80.25;32.13;;;2.60;99.90;;;;;;5029220;28;20049;-38
2022/12/02 06:45:21;;;;;;;73.10;30.30;;;2.60;99.90;;;;;;5010614;28;20037;-38
2022/12/02 06:47:58;;;;;;;72.70;30.00;;;2.60;99.90;;;;;;5024016;28;20114;-38
2022/12/02 06:50:30;;;;;;;76.00;32.50;;;2.60;99.90;;;;;;5024491;28;20056;-38
2022/12/02 06:53:07;;;;;;;77.90;31.77;;;2.50;99.90;;;;;;5022931;28;20077;-38
2022/12/02 06:55:36;;;;;;;79.93;31.20;;;2.60;99.90;;;;;;5020734;28;20465;-38
2022/12/02 06:58:13;;;;;;;79.95;30.70;;;2.50;99.90;;;;;;5019697;28;20567;-38
2022/12/02 07:00:40;;;;;;;77.43;32.80;;;2.50;99.90;;;;;;5021913;28;20076;-38
2022/12/02 07:03:10;;;;;;;79.18;32.22;;;2.50;99.90;;;;;;5005552;28;20139;-38
2022/12/02 07:05:37;;;;;;;82.38;33.22;;;2.60;99.90;;;;;;5022697;28;20584;-38
2022/12/02 07:08:04;;;;;;;80.32;32.55;;;2.60;99.90;;;;;;5028855;28;20081;-39
2022/12/02 07:10:31;;;;;;;84.75;32.25;;;2.60;99.90;;;;;;5004134;28;20057;-38
2022/12/02 07:13:01;;;;;;;82.78;32.58;;;2.60;99.90;;;;;;5024784;28;20053;-39
2022/12/02 07:15:29;;;;;;;86.90;33.30;;;2.60;99.90;;;;;;5027401;28;20083;-39
2022/12/02 07:17:56;;;;;;;79.50;31.92;;;2.60;99.90;;;;;;4994943;28;20445;-40
2022/12/02 07:20:31;;;;;;;84.53;33.15;;;2.70;99.90;;;;;;5019866;28;20100;-40
2022/12/02 07:22:59;;;;;;;83.60;32.70;;;2.60;99.90;;;;;;5028840;28;20146;-40
2022/12/02 07:25:35;;;;;;;83.57;32.13;;;2.60;99.90;;;;;;5012155;28;20127;-40
2022/12/02 07:28:09;;;;;;;76.30;31.63;;;2.60;99.90;;;;;;5008789;28;20549;-40
2022/12/02 07:30:39;;;;;;;84.32;32.42;;;2.60;99.90;;;;;;5007445;28;20489;-39
2022/12/02 07:33:06;;;;;;;88.38;31.85;;;2.60;99.90;;;;;;5022992;28;20527;-40
2022/12/02 07:35:32;;;;;;;85.95;33.83;;;2.60;99.90;;;;;;5028463;28;20897;-40
2022/12/02 07:37:59;;;;;;;83.63;33.70;;;2.60;99.90;;;;;;5017490;28;20050;-35
2022/12/02 07:40:26;;;;;;;84.45;33.40;;;2.60;99.90;;;;;;5018761;28;20077;-38
2022/12/02 07:42:53;;;;;;;86.10;32.75;;;2.70;99.90;;;;;;5004575;28;20151;-37
2022/12/02 07:45:21;;;;;;;88.15;33.45;;;2.70;99.90;;;;;;4999050;28;20100;-37
2022/12/02 07:47:48;;;;;;;92.40;34.33;;;2.70;99.90;;;;;;5020176;28;20438;-38
2022/12/02 07:50:15;;;;;;;95.45;36.80;;;2.70;99.90;;;;;;5021400;28;20138;-38
2022/12/02 07:52:42;;;;;;;86.70;34.80;;;2.70;99.90;;;;;;5021057;28;20129;-37
2022/12/02 07:55:09;;;;;;;93.47;35.42;;;2.70;99.90;;;;;;4998340;28;20474;-38
2022/12/02 07:57:37;;;;;;;85.45;33.83;;;2.70;99.90;;;;;;5025045;28;20077;-38
2022/12/02 08:00:05;;;;;;;89.22;34.22;;;2.70;99.90;;;;;;5031062;28;20046;-39
2022/12/02 08:02:33;;;;;;;99.60;37.35;;;2.70;99.90;;;;;;5028436;28;20053;-36
2022/12/02 08:05:00;;;;;;;90.45;34.65;;;2.80;99.90;;;;;;5018623;28;20510;-38
2022/12/02 08:07:26;;;;;;;99.18;34.63;;;2.70;99.90;;;;;;5033793;28;20102;-39
2022/12/02 08:09:53;;;;;;;93.70;34.65;;;2.80;99.90;;;;;;5030969;28;20057;-38
2022/12/02 08:12:20;;;;;;;90.72;37.13;;;2.70;99.90;;;;;;5011569;28;20140;-38
2022/12/02 08:14:47;;;;;;;81.50;30.55;;;2.80;99.90;;;;;;5011817;28;20053;-37
2022/12/02 08:17:14;;;;;;;82.25;33.25;;;2.80;99.90;;;;;;5004547;28;20566;-39
2022/12/02 08:19:42;;;;;;;83.55;32.90;;;2.80;99.90;;;;;;4987003;28;20113;-38
2022/12/02 08:22:08;;;;;;;79.32;32.95;;;2.80;99.90;;;;;;5004900;28;20133;-39
2022/12/02 08:24:35;;;;;;;77.57;30.38;;;2.80;99.90;;;;;;5000078;28;20540;-37
2022/12/02 08:27:02;;;;;;;69.47;25.90;;;2.80;99.90;;;;;;4984941;28;20159;-39
2022/12/02 08:29:29;;;;;;;74.53;29.95;;;2.80;99.90;;;;;;4987182;28;20050;-39
2022/12/02 08:31:56;;;;;;;78.88;31.58;;;2.80;99.90;;;;;;5002847;28;20054;-39
2022/12/02 08:34:23;;;;;;;82.47;31.58;;;2.80;99.90;;;;;;4979423;28;20066;-39
2022/12/02 08:36:51;;;;;;;76.90;29.35;;;2.80;99.90;;;;;;5009801;28;20460;-36
2022/12/02 08:39:17;;;;;;;75.95;29.73;;;2.80;99.90;;;;;;5009491;28;20050;-38
2022/12/02 08:41:44;;;;;;;78.95;33.15;;;2.90;99.90;;;;;;5006755;28;20168;-39
2022/12/02 08:44:11;;;;;;;77.63;30.98;;;2.90;99.90;;;;;;4987869;28;20129;-38
2022/12/02 08:46:38;;;;;;;72.45;29.73;;;2.90;99.90;;;;;;5013716;28;20132;-38
2022/12/02 08:49:06;;;;;;;74.72;29.05;;;2.90;99.90;;;;;;5010989;28;20134;-38
2022/12/02 08:51:32;;;;;;;78.00;29.92;;;2.90;99.90;;;;;;4984530;28;20498;-38
2022/12/02 08:54:00;;;;;;;74.45;28.77;;;2.90;99.90;;;;;;5000162;28;20093;-39
2022/12/02 08:56:27;;;;;;;75.88;30.40;;;2.90;99.90;;;;;;5010938;28;20081;-39
2022/12/02 08:58:54;;;;;;;81.15;30.73;;;3.00;99.90;;;;;;5008131;28;20569;-39
2022/12/02 09:01:21;;;;;;;79.28;30.65;;;3.00;99.90;;;;;;5004609;28;20129;-39
2022/12/02 09:03:48;;;;;;;78.53;31.27;;;2.90;99.90;;;;;;5008439;28;20085;-39
2022/12/02 09:06:14;;;;;;;80.38;29.10;;;2.90;99.90;;;;;;5006421;28;20081;-39
2022/12/02 09:08:41;;;;;;;74.15;29.85;;;3.00;99.90;;;;;;5001960;28;20058;-38
2022/12/02 09:11:09;;;;;;;73.32;29.08;;;3.00;99.90;;;;;;5004936;28;20139;-38
2022/12/02 09:13:36;;;;;;;77.90;31.17;;;3.00;99.90;;;;;;5004431;28;20124;-39
2022/12/02 09:16:03;;;;;;;79.88;30.17;;;3.00;99.90;;;;;;5020862;28;20127;-39
2022/12/02 09:18:30;;;;;;;78.03;30.52;;;3.00;99.90;;;;;;5027575;28;20544;-39
2022/12/02 09:20:57;;;;;;;88.90;30.85;;;3.00;99.90;;;;;;5018879;28;20050;-39
2022/12/02 09:23:23;;;;;;;88.70;32.95;;;3.00;99.90;;;;;;5022219;28;20160;-39
2022/12/02 09:25:50;;;;;;;79.60;30.73;;;3.00;99.90;;;;;;5026410;28;20444;-40
2022/12/02 09:28:20;;;;;;;85.60;32.42;;;3.00;99.90;;;;;;5005372;28;20084;-40
2022/12/02 09:30:47;;;;;;;82.85;30.70;;;3.00;99.90;;;;;;5022985;28;20466;-38
2022/12/02 09:33:14;;;;;;;80.93;29.90;;;3.00;99.90;;;;;;5008196;28;20151;-39
2022/12/02 09:35:41;;;;;;;79.80;29.88;;;3.10;99.90;;;;;;5006510;28;20441;-39
2022/12/02 09:38:08;;;;;;;73.85;29.50;;;3.00;99.90;;;;;;5021531;28;20077;-37
2022/12/02 09:40:35;;;;;;;81.03;30.83;;;3.00;99.90;;;;;;5024506;28;20449;-39
2022/12/02 09:43:02;;;;;;;73.72;28.35;;;3.10;99.90;;;;;;5022334;28;20050;-39
2022/12/02 09:45:30;;;;;;;70.55;27.85;;;3.10;99.90;;;;;;5024589;28;20077;-39
2022/12/02 09:47:57;;;;;;;73.18;29.10;;;3.10;99.90;;;;;;5029607;28;20081;-39
2022/12/02 09:50:24;;;;;;;74.90;28.77;;;3.10;99.90;;;;;;5025647;28;20123;-40
2022/12/02 09:52:51;;;;;;;76.68;29.67;;;3.20;99.90;;;;;;5027140;28;20507;-40
2022/12/02 09:55:19;;;;;;;79.10;30.02;;;3.20;99.90;;;;;;5007787;28;20107;-40
2022/12/02 09:57:46;;;;;;;75.88;30.02;;;3.10;99.90;;;;;;5022260;28;20501;-39
2022/12/02 10:00:16;;;;;;;78.85;30.38;;;3.10;99.90;;;;;;5007819;28;20466;-39
2022/12/02 10:02:44;;;;;;;75.43;28.25;;;3.20;99.90;;;;;;5022122;28;20053;-39
2022/12/02 10:05:13;;;;;;;79.60;27.70;;;3.10;99.90;;;;;;5027647;28;20042;-39
2022/12/02 10:07:40;;;;;;;84.20;30.30;;;3.20;99.90;;;;;;5011438;28;20401;-39
2022/12/02 10:10:09;;;;;;;80.38;30.65;;;3.20;99.90;;;;;;5011816;28;20095;-39
2022/12/02 10:12:36;;;;;;;76.00;28.45;;;3.20;99.90;;;;;;5029144;28;20142;-39
2022/12/02 10:15:03;;;;;;;85.30;30.75;;;3.20;99.90;;;;;;5028736;28;20041;-39
2022/12/02 10:17:30;;;;;;;92.95;33.25;;;3.20;99.90;;;;;;5030886;28;20057;-40
2022/12/02 10:19:58;;;;;;;88.07;31.33;;;3.20;99.90;;;;;;5005886;28;20115;-38
2022/12/02 10:22:24;;;;;;;92.70;33.78;;;3.20;99.90;;;;;;5031422;28;20042;-38
2022/12/02 10:24:51;;;;;;;91.93;33.42;;;3.30;99.90;;;;;;5026806;28;20042;-37
2022/12/02 10:27:26;;;;;;;99.75;33.95;;;3.20;99.90;;;;;;4995804;28;20057;-39
2022/12/02 10:29:53;;;;;;;88.82;31.67;;;3.20;99.90;;;;;;5012966;28;20050;-38
2022/12/02 10:32:20;;;;;;;94.70;33.53;;;3.10;99.90;;;;;;4994725;28;20088;-38
2022/12/02 10:35:02;;;;;;;87.28;33.38;;;3.20;99.90;;;;;;5027112;28;20398;-37
2022/12/02 10:37:28;;;;;;;85.10;31.58;;;3.20;99.90;;;;;;5023079;28;20512;-38
2022/12/02 10:40:08;;;;;;;81.43;29.70;;;3.20;99.90;;;;;;5014922;28;20181;-38
2022/12/02 10:42:34;;;;;;;84.53;30.25;;;3.20;99.90;;;;;;4999829;28;20082;-38
2022/12/02 10:45:18;;;;;;;87.72;32.30;;;3.30;99.90;;;;;;5027019;28;20096;-38
2022/12/02 10:47:45;;;;;;;83.43;30.55;;;3.30;99.90;;;;;;5027444;28;20129;-38
2022/12/02 10:50:18;;;;;;;79.70;29.45;;;3.30;99.90;;;;;;5027966;28;20080;-37
2022/12/02 10:52:46;;;;;;;75.50;30.42;;;3.30;99.90;;;;;;5008664;28;20045;-38
2022/12/02 10:55:13;;;;;;;76.57;29.42;;;3.40;99.90;;;;;;5019568;28;20077;-38
2022/12/02 10:57:42;;;;;;;81.72;30.35;;;3.30;99.90;;;;;;5025411;28;20061;-38
2022/12/02 11:00:14;;;;;;;80.15;30.05;;;3.30;99.90;;;;;;5019922;28;20115;-38
2022/12/02 11:02:45;;;;;;;78.85;29.52;;;3.30;99.90;;;;;;5025459;28;20084;-38
2022/12/02 11:05:14;;;;;;;70.68;28.65;;;3.30;99.90;;;;;;5017530;28;20042;-38
2022/12/02 11:07:50;;;;;;;74.22;28.58;;;3.30;99.90;;;;;;5021601;28;20072;-38
2022/12/02 11:10:19;;;;;;;66.50;26.52;;;3.30;99.90;;;;;;5022582;28;20132;-38
2022/12/02 11:13:04;;;;;;;70.72;29.45;;;3.40;99.90;;;;;;5028307;28;20065;-38
2022/12/02 11:15:49;;;;;;;63.53;27.67;;;3.40;99.90;;;;;;5021478;28;20096;-37
2022/12/02 11:18:54;;;;;;;72.75;28.85;;;3.30;99.90;;;;;;5028407;28;20470;-39
2022/12/02 11:21:35;;;;;;;73.28;29.60;;;3.30;99.90;;;;;;5005569;28;20119;-37
2022/12/02 11:24:38;;;;;;;74.90;30.02;;;3.30;99.90;;;;;;5008067;28;20170;-38
2022/12/02 11:27:09;;;;;;;83.15;33.72;;;3.30;99.90;;;;;;5004539;28;20053;-38
2022/12/02 11:29:37;;;;;;;74.65;31.00;;;3.30;99.90;;;;;;5003677;28;20050;-39
2022/12/02 11:32:15;;;;;;;80.70;33.58;;;3.20;99.90;;;;;;5023980;28;20052;-38
2022/12/02 11:34:43;;;;;;;76.07;31.05;;;3.20;99.90;;;;;;5021567;28;20120;-40
2022/12/02 11:37:36;;;;;;;79.47;33.05;;;3.30;99.90;;;;;;4999608;28;20179;-38
2022/12/02 11:40:08;;;;;;;88.72;35.10;;;3.30;99.90;;;;;;5006171;28;20444;-37
2022/12/02 11:42:35;;;;;;;83.75;35.05;;;3.30;99.90;;;;;;5024758;28;20125;-38
2022/12/02 11:45:13;;;;;;;85.13;34.95;;;3.30;99.90;;;;;;5021890;28;20142;-38
2022/12/02 11:47:40;;;;;;;81.07;34.90;;;3.30;99.90;;;;;;5030646;28;20096;-39
2022/12/02 11:50:19;;;;;;;84.85;36.03;;;3.30;99.90;;;;;;5030407;28;20084;-38
2022/12/02 11:52:50;;;;;;;83.57;34.60;;;3.30;99.90;;;;;;5031896;28;20056;-38
2022/12/02 11:55:20;;;;;;;88.47;36.88;;;3.30;99.90;;;;;;5029018;28;20374;-39
2022/12/02 11:57:48;;;;;;;84.68;34.78;;;3.30;99.90;;;;;;5030028;28;20114;-38
2022/12/02 12:00:23;;;;;;;87.30;37.50;;;3.30;99.90;;;;;;5031603;28;20144;-39
2022/12/02 12:03:07;;;;;;;92.43;37.40;;;3.30;99.90;;;;;;5029656;28;20082;-38
2022/12/02 12:05:34;;;;;;;88.00;37.95;;;3.40;99.90;;;;;;5022984;28;20515;-39
2022/12/02 12:08:01;;;;;;;94.60;38.92;;;3.40;99.90;;;;;;5009707;28;20580;-38
2022/12/02 12:10:30;;;;;;;93.80;40.33;;;3.30;99.90;;;;;;5018244;28;20457;-38
2022/12/02 12:13:21;;;;;;;92.65;40.92;;;3.30;99.90;;;;;;5019946;28;20059;-40
2022/12/02 12:15:55;;;;;;;98.35;39.13;;;3.30;99.90;;;;;;5030984;28;20059;-39
2022/12/02 12:18:39;;;;;;;97.47;40.30;;;3.30;99.90;;;;;;5030800;28;20057;-39
2022/12/02 12:21:06;;;;;;;92.60;39.53;;;3.20;99.90;;;;;;5023201;28;20100;-39
2022/12/02 12:23:34;;;;;;;105.35;41.60;;;3.20;99.90;;;;;;5024558;28;20466;-38
2022/12/02 12:26:03;;;;;;;93.70;39.55;;;3.30;99.90;;;;;;5014288;28;20100;-38
2022/12/02 12:28:30;;;;;;;96.75;40.05;;;3.30;99.90;;;;;;5011541;28;20056;-39
2022/12/02 12:30:58;;;;;;;92.07;38.80;;;3.30;99.90;;;;;;5011923;28;20086;-39
2022/12/02 12:33:24;;;;;;;94.80;40.40;;;3.30;99.90;;;;;;5027195;28;20085;-39
2022/12/02 12:35:52;;;;;;;92.65;40.78;;;3.30;99.90;;;;;;5001892;28;20107;-39
2022/12/02 12:38:19;;;;;;;89.65;38.58;;;3.30;99.90;;;;;;5026271;28;20403;-39
2022/12/02 12:40:46;;;;;;;89.72;40.17;;;3.30;99.90;;;;;;5026040;28;20124;-38
2022/12/02 12:43:14;;;;;;;95.93;40.33;;;3.30;99.90;;;;;;5025718;28;20191;-38
2022/12/02 12:45:40;;;;;;;91.97;40.47;;;3.30;99.90;;;;;;5029014;28;20481;-38
2022/12/02 12:48:07;;;;;;;94.05;40.17;;;3.30;99.90;;;;;;5024143;28;20049;-39